createdAt,value
2023-05-06T00:00:32.808Z,200.14
2023-05-06T00:01:32.879Z,199.87
2023-05-06T00:02:33.003Z,198.39
2023-05-06T00:03:33.101Z,199.49
2023-05-06T00:04:33.073Z,201.33
2023-05-06T00:05:33.120Z,201.12
2023-05-06T00:06:33.160Z,202.08
2023-05-06T00:07:33.209Z,202.18
2023-05-06T00:08:33.328Z,203.95
2023-05-06T00:09:33.332Z,206.26
2023-05-06T00:10:33.393Z,204.81
2023-05-06T00:11:33.446Z,205.71
2023-05-06T00:12:33.561Z,207.98
2023-05-06T00:13:33.559Z,204.97
2023-05-06T00:14:33.623Z,206.46
2023-05-06T00:15:33.675Z,203.98
2023-05-06T00:16:33.781Z,205.14
2023-05-06T00:17:33.805Z,203.74
2023-05-06T00:18:33.861Z,204.69
2023-05-06T00:19:33.907Z,205.41
2023-05-06T00:20:33.961Z,203.07
2023-05-06T00:21:34.017Z,200.21
2023-05-06T00:22:34.080Z,203.87
2023-05-06T00:23:34.111Z,203.47
2023-05-06T00:24:34.232Z,202.72
2023-05-06T00:25:34.208Z,203.20
2023-05-06T00:26:34.286Z,203.23
2023-05-06T00:27:34.321Z,203.55
2023-05-06T00:28:34.387Z,200.27
2023-05-06T00:29:34.419Z,205.79
2023-05-06T00:30:34.468Z,202.65
2023-05-06T00:31:34.679Z,203.41
2023-05-06T00:32:34.627Z,203.44
2023-05-06T00:33:34.656Z,204.91
2023-05-06T00:34:34.716Z,207.96
2023-05-06T00:35:34.734Z,208.06
2023-05-06T00:36:34.715Z,203.42
2023-05-06T00:37:34.722Z,202.28
2023-05-06T00:38:34.741Z,205.94
2023-05-06T00:39:34.748Z,206.89
2023-05-06T00:40:34.753Z,206.29
2023-05-06T00:41:34.762Z,209.93
2023-05-06T00:42:34.783Z,209.27
2023-05-06T00:43:34.794Z,208.70
2023-05-06T00:44:34.787Z,203.08
2023-05-06T00:45:34.834Z,207.82
2023-05-06T00:46:34.821Z,211.18
2023-05-06T00:47:34.894Z,211.09
2023-05-06T00:48:34.935Z,209.41
2023-05-06T00:49:35.003Z,208.09
2023-05-06T00:50:35.125Z,208.25
2023-05-06T00:51:35.106Z,211.06
2023-05-06T00:52:35.178Z,207.58
2023-05-06T00:53:35.245Z,208.57
2023-05-06T00:54:35.256Z,208.83
2023-05-06T00:55:35.260Z,209.14
2023-05-06T00:56:35.331Z,209.26
2023-05-06T00:57:35.275Z,210.21
2023-05-06T00:58:35.300Z,212.36
2023-05-06T00:59:35.289Z,211.35
2023-05-06T01:00:35.305Z,209.42
2023-05-06T01:01:35.444Z,205.73
2023-05-06T01:03:35.386Z,209.75
2023-05-06T01:04:35.375Z,210.23
2023-05-06T01:05:35.354Z,209.35
2023-05-06T01:06:35.368Z,208.56
2023-05-06T01:07:35.424Z,206.08
2023-05-06T01:08:35.500Z,208.60
2023-05-06T01:09:35.555Z,209.63
2023-05-06T01:10:35.695Z,210.19
2023-05-06T01:11:35.690Z,204.11
2023-05-06T01:12:35.772Z,209.01
2023-05-06T01:13:35.802Z,212.88
2023-05-06T01:14:35.860Z,209.56
2023-05-06T01:15:35.945Z,209.26
2023-05-06T01:16:36.008Z,210.89
2023-05-06T01:17:36.062Z,211.53
2023-05-06T01:18:36.105Z,209.47
2023-05-06T01:19:36.118Z,209.64
2023-05-06T01:20:36.126Z,209.83
2023-05-06T01:21:36.132Z,209.87
2023-05-06T01:22:36.124Z,211.47
2023-05-06T01:23:36.133Z,212.00
2023-05-06T01:24:36.213Z,213.19
2023-05-06T01:25:36.158Z,210.17
2023-05-06T01:26:36.159Z,211.50
2023-05-06T01:27:36.168Z,209.81
2023-05-06T01:28:36.239Z,209.83
2023-05-06T01:29:36.170Z,209.86
2023-05-06T01:30:36.170Z,211.66
2023-05-06T01:31:36.360Z,209.23
2023-05-06T01:32:36.387Z,210.33
2023-05-06T01:33:36.352Z,210.96
2023-05-06T01:34:36.415Z,211.93
2023-05-06T01:35:36.482Z,210.20
2023-05-06T01:36:36.545Z,207.55
2023-05-06T01:37:36.595Z,208.43
2023-05-06T01:38:36.659Z,208.72
2023-05-06T01:39:36.710Z,209.27
2023-05-06T01:40:36.772Z,210.32
2023-05-06T01:41:36.882Z,208.63
2023-05-06T01:42:36.902Z,207.88
2023-05-06T01:43:36.952Z,208.05
2023-05-06T01:44:37.090Z,208.78
2023-05-06T01:45:37.079Z,206.99
2023-05-06T01:46:37.235Z,207.21
2023-05-06T01:47:37.232Z,206.35
2023-05-06T01:48:37.282Z,206.65
2023-05-06T01:49:37.333Z,205.54
2023-05-06T01:50:37.398Z,205.41
2023-05-06T01:51:37.462Z,203.63
2023-05-06T01:52:37.531Z,204.61
2023-05-06T01:53:37.590Z,204.75
2023-05-06T01:54:37.655Z,205.44
2023-05-06T01:55:37.723Z,205.33
2023-05-06T01:56:37.793Z,202.01
2023-05-06T01:57:37.867Z,202.22
2023-05-06T01:58:37.936Z,202.33
2023-05-06T01:59:38.000Z,202.14
2023-05-06T02:00:38.123Z,201.68
2023-05-06T02:01:38.197Z,199.78
2023-05-06T02:02:38.412Z,200.50
2023-05-06T02:03:38.414Z,201.77
2023-05-06T02:04:38.341Z,200.15
2023-05-06T02:05:38.408Z,197.87
2023-05-06T02:06:38.486Z,198.45
2023-05-06T02:07:38.555Z,199.43
2023-05-06T02:08:38.616Z,194.88
2023-05-06T02:09:38.665Z,197.56
2023-05-06T02:10:38.754Z,196.50
2023-05-06T02:11:38.795Z,194.75
2023-05-06T02:12:38.912Z,191.86
2023-05-06T02:13:38.921Z,194.85
2023-05-06T02:14:38.991Z,194.53
2023-05-06T02:15:39.053Z,192.20
2023-05-06T02:16:39.155Z,193.37
2023-05-06T02:17:39.220Z,190.73
2023-05-06T02:18:39.263Z,193.43
2023-05-06T02:19:39.332Z,191.06
2023-05-06T02:20:39.401Z,193.77
2023-05-06T02:21:39.472Z,191.24
2023-05-06T02:22:39.565Z,190.38
2023-05-06T02:23:39.636Z,192.51
2023-05-06T02:24:39.704Z,191.95
2023-05-06T02:25:39.776Z,191.51
2023-05-06T02:26:39.844Z,189.73
2023-05-06T02:27:39.923Z,188.71
2023-05-06T02:28:40.028Z,185.54
2023-05-06T02:29:40.085Z,186.30
2023-05-06T02:30:40.177Z,187.52
2023-05-06T02:31:40.281Z,184.99
2023-05-06T02:32:40.406Z,184.99
2023-05-06T02:33:40.396Z,185.77
2023-05-06T02:34:40.481Z,186.23
2023-05-06T02:35:40.534Z,185.43
2023-05-06T02:36:40.618Z,184.95
2023-05-06T02:37:40.682Z,181.18
2023-05-06T02:38:40.778Z,181.26
2023-05-06T02:39:40.824Z,178.94
2023-05-06T02:40:40.896Z,178.89
2023-05-06T02:41:40.965Z,181.33
2023-05-06T02:42:41.162Z,182.05
2023-05-06T02:43:41.118Z,178.92
2023-05-06T02:44:41.187Z,179.20
2023-05-06T02:45:41.273Z,182.23
2023-05-06T02:46:41.315Z,179.27
2023-05-06T02:47:41.444Z,180.35
2023-05-06T02:48:41.528Z,176.90
2023-05-06T02:49:41.558Z,176.69
2023-05-06T02:50:41.606Z,178.00
2023-05-06T02:51:41.679Z,176.13
2023-05-06T02:52:41.748Z,177.99
2023-05-06T02:53:41.836Z,177.39
2023-05-06T02:54:41.897Z,178.35
2023-05-06T02:55:41.964Z,176.83
2023-05-06T02:56:42.042Z,177.43
2023-05-06T02:57:42.119Z,175.92
2023-05-06T02:58:42.181Z,176.68
2023-05-06T02:59:42.272Z,176.76
2023-05-06T03:00:42.346Z,175.08
2023-05-06T03:01:42.423Z,174.18
2023-05-06T03:02:42.524Z,173.73
2023-05-06T03:03:42.555Z,175.51
2023-05-06T03:04:42.699Z,179.25
2023-05-06T03:05:42.701Z,175.84
2023-05-06T03:06:42.768Z,173.79
2023-05-06T03:07:42.781Z,174.02
2023-05-06T03:08:42.777Z,174.60
2023-05-06T03:09:42.826Z,174.77
2023-05-06T03:10:42.793Z,177.17
2023-05-06T03:11:42.823Z,180.22
2023-05-06T03:12:42.845Z,177.16
2023-05-06T03:13:42.828Z,177.57
2023-05-06T03:14:42.842Z,175.52
2023-05-06T03:15:42.849Z,175.86
2023-05-06T03:16:42.891Z,175.17
2023-05-06T03:17:43.045Z,173.10
2023-05-06T03:18:43.066Z,173.44
2023-05-06T03:19:43.092Z,172.67
2023-05-06T03:20:43.231Z,176.41
2023-05-06T03:21:43.287Z,177.62
2023-05-06T03:22:43.333Z,174.51
2023-05-06T03:23:43.514Z,173.35
2023-05-06T03:24:43.470Z,175.70
2023-05-06T03:25:43.551Z,174.46
2023-05-06T03:26:43.632Z,171.99
2023-05-06T03:27:43.705Z,171.68
2023-05-06T03:28:43.810Z,172.13
2023-05-06T03:29:43.863Z,171.52
2023-05-06T03:30:43.933Z,171.86
2023-05-06T03:31:44.042Z,174.95
2023-05-06T03:32:44.134Z,174.79
2023-05-06T03:33:44.181Z,172.46
2023-05-06T03:34:44.274Z,172.40
2023-05-06T03:35:44.394Z,171.02
2023-05-06T03:36:44.481Z,172.04
2023-05-06T03:37:44.495Z,173.28
2023-05-06T03:38:44.619Z,173.02
2023-05-06T03:39:44.665Z,172.43
2023-05-06T03:40:44.735Z,171.72
2023-05-06T03:41:44.808Z,173.72
2023-05-06T03:42:44.894Z,170.71
2023-05-06T03:43:44.989Z,175.22
2023-05-06T03:44:45.040Z,171.93
2023-05-06T03:45:45.119Z,168.46
2023-05-06T03:46:45.181Z,173.32
2023-05-06T03:47:45.331Z,175.02
2023-05-06T03:48:45.383Z,171.91
2023-05-06T03:49:45.433Z,171.79
2023-05-06T03:50:45.504Z,171.74
2023-05-06T03:51:45.588Z,170.62
2023-05-06T03:52:45.848Z,172.13
2023-05-06T03:53:45.782Z,176.10
2023-05-06T03:54:45.838Z,172.18
2023-05-06T03:55:45.897Z,171.40
2023-05-06T03:56:45.974Z,174.50
2023-05-06T03:57:46.046Z,175.59
2023-05-06T03:58:46.137Z,172.36
2023-05-06T03:59:46.211Z,170.84
2023-05-06T04:00:46.281Z,173.10
2023-05-06T04:01:46.394Z,172.85
2023-05-06T04:02:46.461Z,173.97
2023-05-06T04:03:46.577Z,171.21
2023-05-06T04:04:46.602Z,173.99
2023-05-06T04:05:46.677Z,174.65
2023-05-06T04:06:46.775Z,174.80
2023-05-06T04:07:46.845Z,174.79
2023-05-06T04:08:46.909Z,175.22
2023-05-06T04:09:46.992Z,174.68
2023-05-06T04:10:47.056Z,170.65
2023-05-06T04:11:47.139Z,171.92
2023-05-06T04:12:47.267Z,170.74
2023-05-06T04:13:47.301Z,170.82
2023-05-06T04:14:47.367Z,168.64
2023-05-06T04:15:47.476Z,172.44
2023-05-06T04:16:47.535Z,172.37
2023-05-06T04:17:47.664Z,175.00
2023-05-06T04:18:47.856Z,174.55
2023-05-06T04:19:47.811Z,173.50
2023-05-06T04:20:47.851Z,174.86
2023-05-06T04:21:47.974Z,171.65
2023-05-06T04:22:48.024Z,172.91
2023-05-06T04:23:48.094Z,170.73
2023-05-06T04:24:48.193Z,170.81
2023-05-06T04:25:48.264Z,171.45
2023-05-06T04:26:48.343Z,171.38
2023-05-06T04:27:48.494Z,172.22
2023-05-06T04:28:48.510Z,170.55
2023-05-06T04:29:48.606Z,171.98
2023-05-06T04:30:48.655Z,170.94
2023-05-06T04:31:48.774Z,171.25
2023-05-06T04:32:48.897Z,169.83
2023-05-06T04:33:48.941Z,169.22
2023-05-06T04:34:48.970Z,170.70
2023-05-06T04:35:49.069Z,171.32
2023-05-06T04:36:49.147Z,171.09
2023-05-06T04:37:49.242Z,168.87
2023-05-06T04:38:49.291Z,170.56
2023-05-06T04:39:49.372Z,169.63
2023-05-06T04:40:49.519Z,170.47
2023-05-06T04:41:49.538Z,171.86
2023-05-06T04:42:49.613Z,173.44
2023-05-06T04:43:49.698Z,170.70
2023-05-06T04:44:49.769Z,171.62
2023-05-06T04:45:50.006Z,171.85
2023-05-06T04:46:49.801Z,171.70
2023-05-06T04:47:49.916Z,172.05
2023-05-06T04:48:49.820Z,169.89
2023-05-06T04:49:49.840Z,169.35
2023-05-06T04:50:49.851Z,171.97
2023-05-06T04:51:49.857Z,174.66
2023-05-06T04:52:49.890Z,168.05
2023-05-06T04:53:49.890Z,168.81
2023-05-06T04:54:49.949Z,170.37
2023-05-06T04:55:50.034Z,171.64
2023-05-06T04:56:50.167Z,169.46
2023-05-06T04:57:50.199Z,167.75
2023-05-06T04:58:50.270Z,166.95
2023-05-06T04:59:50.349Z,170.00
2023-05-06T05:00:50.434Z,171.52
2023-05-06T05:01:50.619Z,168.95
2023-05-06T05:02:50.701Z,171.15
2023-05-06T05:03:50.744Z,171.38
2023-05-06T05:04:50.760Z,167.65
2023-05-06T05:05:50.832Z,167.77
2023-05-06T05:06:50.928Z,170.56
2023-05-06T05:07:51.007Z,169.65
2023-05-06T05:08:51.160Z,169.31
2023-05-06T05:09:51.147Z,168.72
2023-05-06T05:10:51.205Z,169.15
2023-05-06T05:11:51.282Z,168.84
2023-05-06T05:12:51.431Z,168.74
2023-05-06T05:13:51.457Z,168.41
2023-05-06T05:14:51.522Z,169.35
2023-05-06T05:15:51.606Z,166.56
2023-05-06T05:16:51.759Z,169.06
2023-05-06T05:17:51.822Z,168.00
2023-05-06T05:18:51.829Z,170.98
2023-05-06T05:19:51.919Z,169.00
2023-05-06T05:20:51.999Z,170.18
2023-05-06T05:21:52.081Z,168.98
2023-05-06T05:22:52.154Z,169.75
2023-05-06T05:23:52.226Z,168.92
2023-05-06T05:24:52.320Z,170.60
2023-05-06T05:25:52.397Z,169.72
2023-05-06T05:26:52.472Z,166.95
2023-05-06T05:27:52.545Z,169.37
2023-05-06T05:28:52.667Z,169.55
2023-05-06T05:29:52.693Z,168.72
2023-05-06T05:30:52.810Z,169.58
2023-05-06T05:31:52.814Z,168.72
2023-05-06T05:32:53.010Z,166.38
2023-05-06T05:33:53.050Z,168.56
2023-05-06T05:34:53.078Z,167.88
2023-05-06T05:35:53.143Z,169.21
2023-05-06T05:36:53.189Z,167.95
2023-05-06T05:37:53.267Z,168.60
2023-05-06T05:38:53.339Z,165.60
2023-05-06T05:39:53.409Z,167.22
2023-05-06T05:40:53.500Z,167.42
2023-05-06T05:41:53.554Z,168.02
2023-05-06T05:42:53.635Z,169.66
2023-05-06T05:43:53.725Z,167.26
2023-05-06T05:44:53.837Z,165.82
2023-05-06T05:45:53.885Z,164.30
2023-05-06T05:46:53.965Z,165.07
2023-05-06T05:47:54.076Z,164.19
2023-05-06T05:48:54.100Z,162.95
2023-05-06T05:49:54.189Z,162.20
2023-05-06T05:50:54.236Z,163.28
2023-05-06T05:51:54.312Z,164.21
2023-05-06T05:52:54.414Z,161.51
2023-05-06T05:53:54.490Z,162.94
2023-05-06T05:54:54.561Z,163.36
2023-05-06T05:55:54.712Z,162.61
2023-05-06T05:56:54.698Z,161.99
2023-05-06T05:57:54.768Z,161.00
2023-05-06T05:58:54.834Z,162.45
2023-05-06T05:59:54.897Z,160.43
2023-05-06T06:00:55.109Z,161.25
2023-05-06T06:01:55.047Z,161.06
2023-05-06T06:02:55.172Z,164.44
2023-05-06T06:03:55.313Z,162.33
2023-05-06T06:04:55.356Z,160.86
2023-05-06T06:05:55.425Z,161.34
2023-05-06T06:06:55.375Z,162.22
2023-05-06T06:07:55.462Z,162.17
2023-05-06T06:08:55.527Z,160.38
2023-05-06T06:09:55.607Z,161.08
2023-05-06T06:10:55.662Z,162.77
2023-05-06T06:11:55.740Z,160.55
2023-05-06T06:12:55.860Z,164.12
2023-05-06T06:13:55.879Z,160.41
2023-05-06T06:14:55.960Z,159.96
2023-05-06T06:15:56.054Z,162.69
2023-05-06T06:16:56.095Z,162.87
2023-05-06T06:17:56.106Z,162.75
2023-05-06T06:18:56.069Z,160.61
2023-05-06T06:19:56.059Z,161.94
2023-05-06T06:20:56.089Z,161.55
2023-05-06T06:21:56.077Z,159.91
2023-05-06T06:22:56.097Z,158.95
2023-05-06T06:23:56.101Z,158.45
2023-05-06T06:24:56.104Z,155.65
2023-05-06T06:25:56.109Z,155.82
2023-05-06T06:26:56.137Z,146.59
2023-05-06T06:27:56.123Z,136.94
2023-05-06T06:28:56.150Z,146.38
2023-05-06T06:29:56.147Z,147.00
2023-05-06T06:30:56.141Z,146.99
2023-05-06T06:31:56.187Z,148.69
2023-05-06T06:32:56.294Z,150.06
2023-05-06T06:33:56.172Z,144.41
2023-05-06T06:34:56.181Z,148.97
2023-05-06T06:35:56.183Z,149.15
2023-05-06T06:36:56.174Z,147.60
2023-05-06T06:37:56.186Z,138.04
2023-05-06T06:38:56.195Z,144.10
2023-05-06T06:39:56.208Z,144.91
2023-05-06T06:40:56.204Z,145.59
2023-05-06T06:41:56.230Z,147.48
2023-05-06T06:42:56.231Z,146.95
2023-05-06T06:43:56.232Z,145.69
2023-05-06T06:44:56.231Z,145.67
2023-05-06T06:45:56.352Z,140.83
2023-05-06T06:46:56.330Z,144.63
2023-05-06T06:47:56.407Z,143.29
2023-05-06T06:48:56.518Z,139.84
2023-05-06T06:49:56.476Z,143.51
2023-05-06T06:50:56.500Z,143.61
2023-05-06T06:51:56.509Z,143.35
2023-05-06T06:52:56.513Z,144.09
2023-05-06T06:53:56.626Z,144.90
2023-05-06T06:54:56.519Z,147.18
2023-05-06T06:55:56.524Z,145.14
2023-05-06T06:56:56.527Z,144.64
2023-05-06T06:57:56.537Z,145.92
2023-05-06T06:58:56.565Z,143.85
2023-05-06T06:59:56.556Z,143.39
2023-05-06T07:00:56.585Z,143.32
2023-05-06T07:01:56.624Z,143.10
2023-05-06T07:02:56.743Z,141.35
2023-05-06T07:03:56.738Z,141.71
2023-05-06T07:04:56.713Z,141.93
2023-05-06T07:05:56.711Z,142.91
2023-05-06T07:06:56.727Z,143.89
2023-05-06T07:07:56.740Z,143.91
2023-05-06T07:08:56.760Z,143.80
2023-05-06T07:09:56.761Z,144.63
2023-05-06T07:10:56.755Z,143.93
2023-05-06T07:11:56.762Z,143.68
2023-05-06T07:12:56.776Z,142.37
2023-05-06T07:13:56.809Z,142.57
2023-05-06T07:14:56.763Z,142.77
2023-05-06T07:15:56.770Z,143.52
2023-05-06T07:16:56.830Z,144.70
2023-05-06T07:17:56.823Z,146.14
2023-05-06T07:18:56.784Z,141.43
2023-05-06T07:19:56.796Z,145.45
2023-05-06T07:20:56.808Z,144.73
2023-05-06T07:21:56.798Z,143.69
2023-05-06T07:22:56.821Z,143.28
2023-05-06T07:23:56.867Z,142.29
2023-05-06T07:24:56.888Z,144.52
2023-05-06T07:25:56.956Z,142.03
2023-05-06T07:26:57.015Z,143.95
2023-05-06T07:27:57.060Z,143.41
2023-05-06T07:28:57.136Z,143.34
2023-05-06T07:29:57.200Z,143.69
2023-05-06T07:30:57.333Z,143.43
2023-05-06T07:31:57.295Z,145.45
2023-05-06T07:32:57.502Z,144.88
2023-05-06T07:33:57.436Z,144.97
2023-05-06T07:34:57.484Z,144.00
2023-05-06T07:35:57.524Z,143.89
2023-05-06T07:36:57.643Z,142.43
2023-05-06T07:37:57.612Z,128.94
2023-05-06T07:38:57.660Z,126.67
2023-05-06T07:39:57.735Z,123.29
2023-05-06T07:40:57.727Z,116.17
2023-05-06T07:41:57.766Z,119.17
2023-05-06T07:42:57.802Z,106.85
2023-05-06T07:43:57.854Z,105.62
2023-05-06T07:44:57.899Z,100.07
2023-05-06T07:45:57.967Z,108.11
2023-05-06T07:46:58.178Z,103.48
2023-05-06T07:47:58.086Z,106.79
2023-05-06T07:48:58.046Z,112.01
2023-05-06T07:49:58.074Z,106.25
2023-05-06T07:50:58.119Z,105.42
2023-05-06T07:51:58.197Z,113.16
2023-05-06T07:52:58.195Z,109.02
2023-05-06T07:53:58.226Z,103.15
2023-05-06T07:54:58.294Z,96.14
2023-05-06T07:55:58.333Z,96.21
2023-05-06T07:56:58.376Z,100.64
2023-05-06T07:57:58.399Z,91.10
2023-05-06T07:58:58.445Z,94.61
2023-05-06T07:59:58.501Z,87.54
2023-05-06T08:00:58.506Z,88.55
2023-05-06T08:01:58.536Z,77.75
2023-05-06T08:02:58.611Z,81.23
2023-05-06T08:03:58.657Z,80.55
2023-05-06T08:04:58.627Z,58.87
2023-05-06T08:05:58.623Z,49.57
2023-05-06T08:06:58.660Z,44.03
2023-05-06T08:07:58.672Z,36.11
2023-05-06T08:08:58.763Z,55.30
2023-05-06T08:09:58.710Z,42.86
2023-05-06T08:10:58.725Z,32.24
2023-05-06T08:11:58.809Z,25.37
2023-05-06T08:12:58.805Z,26.21
2023-05-06T08:13:58.776Z,24.67
2023-05-06T08:14:58.765Z,29.21
2023-05-06T08:15:58.858Z,27.23
2023-05-06T08:16:58.816Z,23.59
2023-05-06T08:18:04.370Z,31.97
2023-05-06T08:18:59.813Z,32.06
2023-05-06T08:19:58.812Z,32.04
2023-05-06T08:20:58.799Z,32.60
2023-05-06T08:21:58.814Z,31.53
2023-05-06T08:22:58.799Z,29.61
2023-05-06T08:23:58.786Z,32.07
2023-05-06T08:24:58.846Z,29.51
2023-05-06T08:25:58.785Z,32.55
2023-05-06T08:26:58.777Z,31.73
2023-05-06T08:27:58.815Z,29.74
2023-05-06T08:28:58.788Z,25.00
2023-05-06T08:29:58.774Z,25.14
2023-05-06T08:30:58.788Z,28.16
2023-05-06T08:31:58.892Z,31.98
2023-05-06T08:32:58.795Z,29.09
2023-05-06T08:33:58.775Z,25.00
2023-05-06T08:34:58.767Z,25.00
2023-05-06T08:35:58.826Z,25.59
2023-05-06T08:36:58.766Z,26.21
2023-05-06T08:37:58.767Z,25.73
2023-05-06T08:38:58.772Z,29.77
2023-05-06T08:39:59.918Z,33.43
2023-05-06T08:40:58.784Z,33.44
2023-05-06T08:43:05.132Z,25.00
2023-05-06T08:44:05.143Z,25.00
2023-05-06T08:45:05.126Z,25.00
2023-05-06T08:46:05.145Z,25.00
2023-05-06T08:47:05.129Z,25.00
2023-05-06T08:48:05.213Z,27.66
2023-05-06T08:49:05.150Z,29.05
2023-05-06T08:50:05.178Z,26.27
2023-05-06T08:51:05.169Z,28.21
2023-05-06T08:52:05.175Z,25.00
2023-05-06T08:53:05.184Z,29.95
2023-05-06T08:54:05.185Z,34.65
2023-05-06T08:55:05.227Z,28.41
2023-05-06T08:56:05.262Z,32.75
2023-05-06T08:57:05.193Z,26.19
2023-05-06T08:58:05.207Z,26.06
2023-05-06T08:59:05.213Z,33.34
2023-05-06T09:00:05.226Z,28.84
2023-05-06T09:01:05.238Z,25.00
2023-05-06T09:02:05.253Z,28.21
2023-05-06T09:03:05.255Z,25.15
2023-05-06T09:04:05.203Z,26.22
2023-05-06T09:05:05.203Z,34.12
2023-05-06T09:06:05.193Z,34.51
2023-05-06T09:07:05.194Z,31.68
2023-05-06T09:08:05.200Z,33.50
2023-05-06T09:09:05.217Z,32.39
2023-05-06T09:10:05.247Z,36.06
2023-05-06T09:11:05.206Z,35.81
2023-05-06T09:12:05.270Z,31.02
2023-05-06T09:13:05.240Z,30.52
2023-05-06T09:14:05.217Z,34.02
2023-05-06T09:15:05.218Z,32.10
2023-05-06T09:16:05.202Z,32.37
2023-05-06T09:17:05.272Z,34.05
2023-05-06T09:18:05.305Z,34.25
2023-05-06T09:19:05.307Z,32.40
2023-05-06T09:20:05.299Z,32.63
2023-05-06T09:21:05.303Z,32.96
2023-05-06T09:22:05.303Z,29.10
2023-05-06T09:23:05.304Z,32.11
2023-05-06T09:24:05.362Z,37.41
2023-05-06T09:25:05.329Z,36.94
2023-05-06T09:26:05.311Z,35.65
2023-05-06T09:27:05.317Z,36.28
2023-05-06T09:28:05.478Z,40.89
2023-05-06T09:29:05.465Z,42.24
2023-05-06T09:30:05.534Z,41.16
2023-05-06T09:31:05.647Z,43.09
2023-05-06T09:32:05.682Z,43.30
2023-05-06T09:33:05.787Z,44.03
2023-05-06T09:34:05.820Z,35.93
2023-05-06T09:35:05.894Z,39.25
2023-05-06T09:36:05.947Z,38.74
2023-05-06T09:37:06.032Z,46.69
2023-05-06T09:38:07.145Z,38.19
2023-05-06T09:39:06.199Z,42.79
2023-05-06T09:40:06.242Z,39.61
2023-05-06T09:41:06.313Z,31.65
2023-05-06T09:42:06.397Z,38.40
2023-05-06T09:43:06.472Z,38.23
2023-05-06T09:44:06.643Z,35.29
2023-05-06T09:45:06.615Z,32.05
2023-05-06T09:46:06.752Z,33.04
2023-05-06T09:47:06.760Z,25.82
2023-05-06T09:48:06.872Z,33.97
2023-05-06T09:49:06.919Z,25.30
2023-05-06T09:50:06.968Z,25.14
2023-05-06T09:51:07.038Z,34.14
2023-05-06T09:52:07.115Z,41.35
2023-05-06T09:53:07.163Z,39.00
2023-05-06T09:54:07.184Z,32.39
2023-05-06T09:55:07.196Z,33.24
2023-05-06T09:56:07.155Z,33.08
2023-05-06T09:57:07.165Z,37.09
2023-05-06T09:58:07.148Z,39.83
2023-05-06T09:59:07.163Z,48.21
2023-05-06T10:00:07.241Z,40.99
2023-05-06T10:01:07.168Z,41.30
2023-05-06T10:02:07.187Z,32.34
2023-05-06T10:03:07.300Z,34.23
2023-05-06T10:04:07.442Z,43.06
2023-05-06T10:05:07.596Z,48.53
2023-05-06T10:06:07.480Z,49.08
2023-05-06T10:07:07.529Z,52.99
2023-05-06T10:08:07.606Z,46.35
2023-05-06T10:09:07.656Z,34.99
2023-05-06T10:10:07.732Z,30.38
2023-05-06T10:11:07.769Z,28.61
2023-05-06T10:12:07.837Z,35.44
2023-05-06T10:13:07.967Z,37.70
2023-05-06T10:14:07.973Z,38.72
2023-05-06T10:15:08.139Z,46.25
2023-05-06T10:16:08.279Z,51.72
2023-05-06T10:17:08.182Z,56.61
2023-05-06T10:18:08.239Z,46.32
2023-05-06T10:19:08.214Z,55.22
2023-05-06T10:20:08.183Z,55.67
2023-05-06T10:21:08.181Z,51.94
2023-05-06T10:22:08.190Z,50.79
2023-05-06T10:23:08.198Z,43.71
2023-05-06T10:24:08.214Z,44.79
2023-05-06T10:25:08.373Z,37.60
2023-05-06T10:26:08.226Z,38.49
2023-05-06T10:27:08.299Z,25.88
2023-05-06T10:28:09.509Z,28.38
2023-05-06T10:29:08.402Z,28.41
2023-05-06T10:30:08.367Z,27.61
2023-05-06T10:31:08.391Z,31.09
2023-05-06T10:32:08.559Z,40.00
2023-05-06T10:33:08.463Z,43.29
2023-05-06T10:34:08.444Z,52.64
2023-05-06T10:35:08.542Z,46.00
2023-05-06T10:36:08.378Z,35.18
2023-05-06T10:37:08.443Z,34.22
2023-05-06T10:38:08.400Z,33.67
2023-05-06T10:39:08.412Z,32.18
2023-05-06T10:40:08.386Z,29.23
2023-05-06T10:41:08.418Z,42.54
2023-05-06T10:42:08.416Z,37.17
2023-05-06T10:43:08.430Z,46.52
2023-05-06T10:44:08.412Z,43.14
2023-05-06T10:45:08.569Z,31.75
2023-05-06T10:46:08.543Z,25.10
2023-05-06T10:47:08.529Z,27.89
2023-05-06T10:48:08.716Z,32.07
2023-05-06T10:49:08.626Z,26.15
2023-05-06T10:50:08.675Z,28.04
2023-05-06T10:51:08.739Z,33.07
2023-05-06T10:52:08.811Z,25.00
2023-05-06T10:53:08.880Z,39.53
2023-05-06T10:54:08.939Z,42.83
2023-05-06T10:55:09.158Z,38.48
2023-05-06T10:56:09.013Z,43.22
2023-05-06T10:57:08.955Z,40.13
2023-05-06T10:58:08.963Z,36.09
2023-05-06T10:59:08.972Z,27.24
2023-05-06T11:00:08.958Z,32.02
2023-05-06T11:01:08.986Z,42.06
2023-05-06T11:02:08.965Z,44.46
2023-05-06T11:03:09.065Z,44.77
2023-05-06T11:04:09.113Z,44.94
2023-05-06T11:05:09.296Z,42.25
2023-05-06T11:06:09.174Z,52.70
2023-05-06T11:07:09.251Z,57.14
2023-05-06T11:08:09.292Z,53.25
2023-05-06T11:09:09.366Z,44.70
2023-05-06T11:10:09.440Z,53.88
2023-05-06T11:11:09.508Z,56.63
2023-05-06T11:12:09.576Z,51.71
2023-05-06T11:13:09.792Z,57.66
2023-05-06T11:14:09.694Z,52.69
2023-05-06T11:15:09.896Z,57.57
2023-05-06T11:16:09.926Z,37.91
2023-05-06T11:17:10.080Z,45.56
2023-05-06T11:18:09.958Z,40.14
2023-05-06T11:19:10.012Z,54.13
2023-05-06T11:20:10.259Z,51.73
2023-05-06T11:21:10.119Z,51.64
2023-05-06T11:22:10.154Z,60.84
2023-05-06T11:23:10.207Z,57.85
2023-05-06T11:24:10.263Z,46.08
2023-05-06T11:25:10.308Z,54.33
2023-05-06T11:26:10.363Z,54.67
2023-05-06T11:27:10.297Z,56.37
2023-05-06T11:28:10.303Z,58.25
2023-05-06T11:29:10.324Z,64.04
2023-05-06T11:30:10.458Z,69.51
2023-05-06T11:31:10.384Z,54.96
2023-05-06T11:32:10.317Z,50.52
2023-05-06T11:33:10.372Z,54.67
2023-05-06T11:34:10.287Z,52.65
2023-05-06T11:35:10.305Z,54.57
2023-05-06T11:36:10.365Z,54.95
2023-05-06T11:37:10.277Z,56.16
2023-05-06T11:38:10.382Z,65.45
2023-05-06T11:39:10.282Z,66.49
2023-05-06T11:40:10.522Z,61.05
2023-05-06T11:41:10.311Z,61.88
2023-05-06T11:42:10.306Z,70.08
2023-05-06T11:43:10.348Z,65.51
2023-05-06T11:44:11.613Z,67.52
2023-05-06T11:45:10.431Z,67.59
2023-05-06T11:46:10.526Z,71.57
2023-05-06T11:47:10.528Z,69.08
2023-05-06T11:48:10.577Z,72.85
2023-05-06T11:49:10.642Z,64.98
2023-05-06T11:50:10.851Z,67.15
2023-05-06T11:51:10.736Z,64.56
2023-05-06T11:52:10.896Z,64.81
2023-05-06T11:53:10.822Z,63.99
2023-05-06T11:54:10.863Z,67.39
2023-05-06T11:55:10.898Z,64.84
2023-05-06T11:56:10.953Z,63.28
2023-05-06T11:57:10.976Z,67.06
2023-05-06T11:58:11.014Z,66.32
2023-05-06T11:59:11.091Z,68.34
2023-05-06T12:00:11.353Z,70.05
2023-05-06T12:01:11.152Z,62.29
2023-05-06T12:02:11.213Z,67.35
2023-05-06T12:03:11.373Z,59.93
2023-05-06T12:04:11.410Z,65.25
2023-05-06T12:05:11.315Z,56.62
2023-05-06T12:06:11.353Z,46.29
2023-05-06T12:07:11.433Z,54.71
2023-05-06T12:08:23.526Z,47.54
2023-05-06T12:09:12.457Z,47.90
2023-05-06T12:10:11.610Z,48.74
2023-05-06T12:11:11.422Z,50.14
2023-05-06T12:12:11.421Z,52.74
2023-05-06T12:13:11.522Z,51.10
2023-05-06T12:14:11.438Z,51.38
2023-05-06T12:15:11.427Z,56.44
2023-05-06T12:16:11.512Z,49.87
2023-05-06T12:17:11.441Z,43.70
2023-05-06T12:18:11.549Z,26.98
2023-05-06T12:19:11.433Z,33.84
2023-05-06T12:20:11.681Z,37.93
2023-05-06T12:21:11.442Z,40.58
2023-05-06T12:22:11.423Z,36.77
2023-05-06T12:23:11.417Z,40.77
2023-05-06T12:24:11.474Z,40.88
2023-05-06T12:25:11.707Z,42.59
2023-05-06T12:26:11.557Z,40.10
2023-05-06T12:27:11.589Z,41.85
2023-05-06T12:28:11.572Z,41.86
2023-05-06T12:29:11.594Z,39.65
2023-05-06T12:30:11.850Z,42.53
2023-05-06T12:31:11.665Z,42.30
2023-05-06T12:32:11.667Z,44.22
2023-05-06T12:33:11.618Z,41.71
2023-05-06T12:34:11.603Z,37.26
2023-05-06T12:35:11.593Z,36.25
2023-05-06T12:36:11.600Z,36.31
2023-05-06T12:37:11.598Z,30.77
2023-05-06T12:38:11.606Z,36.84
2023-05-06T12:39:11.613Z,40.89
2023-05-06T12:40:11.868Z,42.48